Time;durP1;ratioP1;P1;durP2;ratioP2;P2;SDS_P1;SDS_P2;PMS_P1;PMS_P2;Temp;Humidity;BMP_temperature;BMP_pressure;BME280_temperature;BME280_humidity;BME280_pressure;Samples;Min_cycle;Max_cycle;Signal;HPM_P1;HPM_P2
2022/11/27 00:00:00;;;;;;;11.27;6.50;;;0.90;99.90;;;;;;5031900;28;20202;-69
2022/11/27 00:02:28;;;;;;;8.15;6.10;;;0.80;99.90;;;;;;5031062;28;20214;-70
2022/11/27 00:04:55;;;;;;;10.23;5.82;;;0.70;99.90;;;;;;5031797;28;20225;-70
2022/11/27 00:07:21;;;;;;;7.50;6.05;;;0.60;99.90;;;;;;5031693;28;20214;-70
2022/11/27 00:09:48;;;;;;;8.13;5.53;;;0.60;99.90;;;;;;5031422;28;20206;-68
2022/11/27 00:12:15;;;;;;;8.23;5.95;;;0.60;99.90;;;;;;5031212;28;20575;-70
2022/11/27 00:14:42;;;;;;;7.10;5.13;;;0.50;99.90;;;;;;5031602;28;20242;-70
2022/11/27 00:17:08;;;;;;;9.95;6.25;;;0.50;99.90;;;;;;5031692;28;20228;-70
2022/11/27 00:19:36;;;;;;;10.45;6.85;;;0.40;99.90;;;;;;5031445;28;20226;-70
2022/11/27 00:22:03;;;;;;;9.60;5.57;;;0.40;99.90;;;;;;5031237;28;20210;-69
2022/11/27 00:24:30;;;;;;;9.32;6.05;;;0.40;99.90;;;;;;5031566;28;20626;-70
2022/11/27 00:26:57;;;;;;;8.52;5.85;;;0.30;99.90;;;;;;5031417;28;20225;-70
2022/11/27 00:29:27;;;;;;;8.13;5.10;;;0.30;99.90;;;;;;5031224;28;20637;-68
2022/11/27 00:31:54;;;;;;;8.88;5.85;;;0.30;99.90;;;;;;5030799;28;20210;-70
2022/11/27 00:34:21;;;;;;;9.45;6.13;;;0.30;99.90;;;;;;5031028;28;20234;-70
2022/11/27 00:36:49;;;;;;;6.00;4.60;;;0.20;99.90;;;;;;5031379;28;20206;-69
2022/11/27 00:39:16;;;;;;;6.78;5.60;;;0.20;99.90;;;;;;5030867;28;20198;-70
2022/11/27 00:41:43;;;;;;;7.03;5.50;;;0.20;99.90;;;;;;5030536;28;20215;-68
2022/11/27 00:44:09;;;;;;;8.52;5.22;;;0.20;99.90;;;;;;5030779;28;20210;-69
2022/11/27 00:46:36;;;;;;;6.93;5.32;;;0.10;99.90;;;;;;5031254;28;20571;-70
2022/11/27 00:49:05;;;;;;;11.80;5.38;;;0.10;99.90;;;;;;5030792;28;20631;-69
2022/11/27 00:51:32;;;;;;;6.60;4.68;;;0.10;99.90;;;;;;5030611;28;20213;-69
2022/11/27 00:54:00;;;;;;;7.18;5.63;;;0.00;99.90;;;;;;5030824;28;20229;-69
2022/11/27 00:56:29;;;;;;;6.38;4.55;;;0.00;99.90;;;;;;5030903;28;20239;-69
2022/11/27 00:58:56;;;;;;;7.70;6.03;;;0.00;99.90;;;;;;5038425;28;20206;-68
2022/11/27 01:01:25;;;;;;;6.15;4.65;;;0.00;99.90;;;;;;5030114;28;20205;-70
2022/11/27 01:03:51;;;;;;;6.75;5.57;;;0.00;99.90;;;;;;5030548;28;20515;-70
2022/11/27 01:06:19;;;;;;;6.70;4.25;;;-0.10;99.90;;;;;;5030570;28;20673;-69
2022/11/27 01:08:47;;;;;;;8.57;4.85;;;-0.10;99.90;;;;;;5030739;28;20206;-68
2022/11/27 01:11:17;;;;;;;7.22;5.50;;;-0.10;99.90;;;;;;5030019;28;20205;-70
2022/11/27 01:13:44;;;;;;;6.63;5.22;;;-0.10;99.90;;;;;;5030474;28;20225;-69
2022/11/27 01:16:13;;;;;;;8.52;6.03;;;-0.20;99.90;;;;;;5030348;28;20713;-69
2022/11/27 01:18:42;;;;;;;6.05;5.18;;;-0.20;99.90;;;;;;5030514;28;20232;-69
2022/11/27 01:21:09;;;;;;;9.55;5.00;;;-0.20;99.90;;;;;;5030185;28;20206;-69
2022/11/27 01:23:36;;;;;;;5.38;4.30;;;-0.20;99.90;;;;;;5030678;28;20198;-69
2022/11/27 01:26:04;;;;;;;6.43;4.63;;;-0.20;99.90;;;;;;5030348;28;20223;-69
2022/11/27 01:28:33;;;;;;;5.95;4.60;;;-0.20;99.90;;;;;;5030388;28;20205;-69
2022/11/27 01:31:04;;;;;;;7.35;5.60;;;-0.20;99.90;;;;;;5029772;28;20209;-69
2022/11/27 01:33:31;;;;;;;6.13;3.97;;;-0.30;99.90;;;;;;5030570;28;20218;-69
2022/11/27 01:35:59;;;;;;;8.88;5.45;;;-0.30;99.90;;;;;;5030337;28;20236;-68
2022/11/27 01:38:27;;;;;;;8.25;5.15;;;-0.30;99.90;;;;;;5030230;28;20229;-68
2022/11/27 01:40:57;;;;;;;7.13;5.32;;;-0.40;99.90;;;;;;5030004;28;20202;-70
2022/11/27 01:43:42;;;;;;;5.20;4.70;;;-0.40;99.90;;;;;;5030180;28;20213;-69
2022/11/27 01:46:21;;;;;;;5.05;4.43;;;-0.40;99.90;;;;;;5029165;28;20250;-68
2022/11/27 01:48:49;;;;;;;5.43;3.95;;;-0.40;99.90;;;;;;5030605;28;20205;-69
2022/11/27 01:51:16;;;;;;;6.30;4.40;;;-0.50;99.90;;;;;;5029868;28;20202;-69
2022/11/27 01:53:43;;;;;;;8.50;4.72;;;-0.50;99.90;;;;;;5030437;28;20370;-69
2022/11/27 01:56:10;;;;;;;7.55;4.85;;;-0.50;99.90;;;;;;5031022;28;20590;-69
2022/11/27 01:58:38;;;;;;;5.82;4.10;;;-0.50;99.90;;;;;;5032067;28;20202;-69
2022/11/27 02:01:06;;;;;;;6.15;4.85;;;-0.50;99.90;;;;;;5030124;28;20234;-69
2022/11/27 02:03:33;;;;;;;10.27;6.05;;;-0.50;99.90;;;;;;5030340;28;20723;-71
2022/11/27 02:06:00;;;;;;;6.95;4.80;;;-0.50;99.90;;;;;;5012641;28;20226;-69
2022/11/27 02:08:27;;;;;;;7.25;4.30;;;-0.60;99.90;;;;;;5010242;28;20225;-69
2022/11/27 02:11:00;;;;;;;5.68;5.05;;;-0.60;99.90;;;;;;5009707;28;20203;-71
2022/11/27 02:13:31;;;;;;;6.47;4.70;;;-0.60;99.90;;;;;;5010945;28;20218;-69
2022/11/27 02:16:09;;;;;;;8.40;4.50;;;-0.60;99.90;;;;;;5014170;28;20234;-70
2022/11/27 02:18:43;;;;;;;6.38;5.38;;;-0.60;99.90;;;;;;5014630;28;20685;-70
2022/11/27 02:21:19;;;;;;;12.98;6.03;;;-0.60;99.90;;;;;;5013378;28;20269;-70
2022/11/27 02:24:19;;;;;;;8.88;5.47;;;-0.60;99.90;;;;;;5013898;28;20199;-69
2022/11/27 02:27:22;;;;;;;7.38;5.30;;;-0.70;99.90;;;;;;4998778;28;20697;-70
2022/11/27 02:29:56;;;;;;;7.38;4.05;;;-0.70;99.90;;;;;;4978392;28;20210;-70
2022/11/27 02:32:27;;;;;;;8.35;4.10;;;-0.70;99.90;;;;;;5013269;28;20674;-71
2022/11/27 02:35:01;;;;;;;6.13;4.93;;;-0.70;99.90;;;;;;5013665;28;20242;-69
2022/11/27 02:37:35;;;;;;;4.93;4.25;;;-0.70;99.90;;;;;;5014041;28;20209;-70
2022/11/27 02:40:05;;;;;;;6.82;4.32;;;-0.60;99.90;;;;;;5013944;28;20207;-71
2022/11/27 02:42:35;;;;;;;7.47;4.97;;;-0.70;99.90;;;;;;5013497;28;20215;-70
2022/11/27 02:45:07;;;;;;;12.48;4.38;;;-0.70;99.90;;;;;;5013445;28;20230;-71
2022/11/27 02:47:35;;;;;;;6.43;3.88;;;-0.70;99.90;;;;;;5013383;28;20635;-71
2022/11/27 02:50:03;;;;;;;7.95;5.13;;;-0.70;99.90;;;;;;5013388;28;20199;-69
2022/11/27 02:52:31;;;;;;;7.13;4.45;;;-0.80;99.90;;;;;;5012718;28;20207;-70
2022/11/27 02:55:03;;;;;;;5.50;4.70;;;-0.80;99.90;;;;;;5013305;28;20264;-70
2022/11/27 02:57:32;;;;;;;6.28;4.82;;;-0.80;99.90;;;;;;5013347;28;20210;-69
2022/11/27 03:00:01;;;;;;;7.05;4.43;;;-0.80;99.90;;;;;;5013202;28;20229;-70
2022/11/27 03:02:33;;;;;;;7.47;4.97;;;-0.80;99.90;;;;;;5012734;28;20560;-69
2022/11/27 03:05:03;;;;;;;7.63;4.70;;;-0.80;99.90;;;;;;5012962;28;20223;-69
2022/11/27 03:07:35;;;;;;;6.50;4.35;;;-0.80;99.90;;;;;;5013205;28;20207;-69
2022/11/27 03:10:08;;;;;;;6.18;3.70;;;-0.80;99.90;;;;;;5013006;28;20206;-70
2022/11/27 03:12:35;;;;;;;5.63;4.30;;;-0.80;99.90;;;;;;5012753;28;20223;-70
2022/11/27 03:15:03;;;;;;;4.95;3.88;;;-0.80;99.90;;;;;;5012933;28;20235;-69
2022/11/27 03:17:42;;;;;;;8.13;4.82;;;-0.80;99.90;;;;;;5012735;28;20199;-70
2022/11/27 03:20:15;;;;;;;4.43;3.63;;;-0.90;99.90;;;;;;5012682;28;20207;-69
2022/11/27 03:22:42;;;;;;;6.25;3.50;;;-0.80;99.90;;;;;;5012568;28;20207;-70
2022/11/27 03:25:08;;;;;;;6.43;4.30;;;-0.80;99.90;;;;;;5012227;28;20247;-70
2022/11/27 03:27:40;;;;;;;6.47;4.05;;;-0.60;99.90;;;;;;5012896;28;20205;-69
2022/11/27 03:30:11;;;;;;;6.05;4.40;;;-0.60;99.90;;;;;;5013146;28;20199;-68
2022/11/27 03:32:39;;;;;;;4.55;3.30;;;-0.50;99.90;;;;;;5012561;28;20294;-70
2022/11/27 03:35:09;;;;;;;5.85;3.42;;;-0.40;99.90;;;;;;5012319;28;20313;-70
2022/11/27 03:37:36;;;;;;;4.68;3.80;;;-0.30;99.90;;;;;;5012784;28;20199;-69
2022/11/27 03:40:04;;;;;;;5.13;3.17;;;-0.10;99.90;;;;;;5012428;28;20203;-70
2022/11/27 03:42:38;;;;;;;5.18;4.03;;;0.00;99.90;;;;;;5011749;28;20221;-70
2022/11/27 03:45:11;;;;;;;7.43;3.70;;;0.10;99.90;;;;;;5012212;28;20672;-69
2022/11/27 03:47:52;;;;;;;3.60;3.30;;;0.20;99.90;;;;;;5012440;28;20709;-70
2022/11/27 03:50:28;;;;;;;5.15;3.17;;;0.10;99.90;;;;;;5011931;28;20603;-70
2022/11/27 03:53:01;;;;;;;4.25;3.83;;;0.10;99.90;;;;;;5012579;28;20207;-70
2022/11/27 03:55:33;;;;;;;4.20;3.10;;;0.10;99.90;;;;;;5012227;28;20239;-69
2022/11/27 03:58:04;;;;;;;5.30;3.67;;;0.00;99.90;;;;;;5012459;28;20203;-69
2022/11/27 04:00:34;;;;;;;7.57;4.95;;;0.00;99.90;;;;;;5011676;28;20211;-68
2022/11/27 04:03:03;;;;;;;5.70;3.97;;;0.00;99.90;;;;;;5012247;28;20203;-70
2022/11/27 04:05:30;;;;;;;6.03;4.28;;;-0.10;99.90;;;;;;5011945;28;20721;-69
2022/11/27 04:07:57;;;;;;;4.63;3.40;;;-0.10;99.90;;;;;;5012183;28;20688;-69
2022/11/27 04:10:23;;;;;;;4.88;3.55;;;-0.20;99.90;;;;;;5011173;28;20206;-70
2022/11/27 04:12:50;;;;;;;7.10;3.95;;;-0.20;99.90;;;;;;5012140;28;20214;-69
2022/11/27 04:15:17;;;;;;;4.50;4.10;;;-0.30;99.90;;;;;;5011683;28;20242;-70
2022/11/27 04:17:44;;;;;;;5.20;4.60;;;-0.30;99.90;;;;;;5012097;28;20207;-70
2022/11/27 04:20:13;;;;;;;3.83;3.50;;;-0.40;99.90;;;;;;5011428;28;20207;-70
2022/11/27 04:22:40;;;;;;;4.90;4.10;;;-0.50;99.90;;;;;;5011727;28;20214;-70
2022/11/27 04:25:08;;;;;;;3.72;3.20;;;-0.50;99.90;;;;;;5011722;28;20223;-70
2022/11/27 04:27:34;;;;;;;7.05;4.50;;;-0.60;99.90;;;;;;5011795;28;20203;-70
2022/11/27 04:30:01;;;;;;;5.68;3.60;;;-0.60;99.90;;;;;;5011658;28;20221;-69
2022/11/27 04:32:28;;;;;;;5.80;3.88;;;-0.60;99.90;;;;;;5011017;28;20579;-70
2022/11/27 04:34:54;;;;;;;4.47;3.45;;;-0.60;99.90;;;;;;5011803;28;20227;-70
2022/11/27 04:37:22;;;;;;;6.03;3.90;;;-0.70;99.90;;;;;;5010841;28;20203;-70
2022/11/27 04:39:49;;;;;;;4.85;3.45;;;-0.70;99.90;;;;;;5115361;22;20233;-71
2022/11/27 04:42:16;;;;;;;4.88;3.78;;;-0.80;99.90;;;;;;5049625;28;20696;-71
2022/11/27 04:44:56;;;;;;;4.57;3.83;;;-0.80;99.90;;;;;;5050282;28;20881;-70
2022/11/27 04:47:23;;;;;;;4.82;3.72;;;-0.80;99.90;;;;;;5050104;28;20228;-71
2022/11/27 04:49:49;;;;;;;5.50;3.90;;;-0.80;99.90;;;;;;5050680;28;20202;-70
2022/11/27 04:52:16;;;;;;;4.68;3.30;;;-0.80;99.90;;;;;;5050461;28;20202;-70
2022/11/27 04:54:44;;;;;;;3.53;3.22;;;-0.90;99.90;;;;;;5050588;28;20239;-70
2022/11/27 04:57:11;;;;;;;5.78;3.70;;;-0.90;99.90;;;;;;5050147;28;20668;-70
2022/11/27 04:59:38;;;;;;;6.75;3.80;;;-0.90;99.90;;;;;;5050592;28;20228;-70
2022/11/27 05:02:04;;;;;;;5.30;3.83;;;-0.90;99.90;;;;;;5049383;28;20300;-70
2022/11/27 05:04:31;;;;;;;5.47;3.78;;;-1.00;99.90;;;;;;5050753;28;20221;-70
2022/11/27 05:06:58;;;;;;;8.13;3.95;;;-1.00;99.90;;;;;;5049909;28;20198;-70
2022/11/27 05:09:25;;;;;;;4.32;3.90;;;-1.00;99.90;;;;;;5049455;28;20209;-70
2022/11/27 05:11:53;;;;;;;4.03;3.60;;;-1.00;99.90;;;;;;5049833;28;20289;-70
2022/11/27 05:14:21;;;;;;;5.60;3.60;;;-1.10;99.90;;;;;;5049850;28;20226;-70
2022/11/27 05:16:50;;;;;;;3.95;3.03;;;-1.10;99.90;;;;;;5050042;28;20747;-70
2022/11/27 05:19:18;;;;;;;3.42;3.08;;;-1.10;99.90;;;;;;5049686;28;20269;-70
2022/11/27 05:21:46;;;;;;;3.63;3.13;;;-1.10;99.90;;;;;;5049569;28;20202;-70
2022/11/27 05:24:13;;;;;;;4.03;3.45;;;-1.10;99.90;;;;;;5049800;28;20320;-70
2022/11/27 05:26:40;;;;;;;4.03;3.42;;;-1.10;99.90;;;;;;5049893;28;20198;-70
2022/11/27 05:29:09;;;;;;;4.95;3.40;;;-1.10;99.90;;;;;;5050017;28;20206;-70
2022/11/27 05:31:37;;;;;;;5.88;3.83;;;-1.10;99.90;;;;;;5049356;28;20691;-71
2022/11/27 05:34:04;;;;;;;6.22;3.92;;;-1.10;99.90;;;;;;5049833;28;20308;-70
2022/11/27 05:36:31;;;;;;;3.63;2.85;;;-1.10;99.90;;;;;;5049707;28;20221;-70
2022/11/27 05:38:59;;;;;;;6.50;2.70;;;-1.10;99.90;;;;;;5050123;28;20209;-70
2022/11/27 05:41:26;;;;;;;3.13;2.63;;;-1.10;99.90;;;;;;5049542;28;20205;-70
2022/11/27 05:43:52;;;;;;;5.18;4.13;;;-1.10;99.90;;;;;;5050060;28;20202;-70
2022/11/27 05:46:22;;;;;;;5.80;2.80;;;-1.20;99.90;;;;;;5050088;28;20198;-70
2022/11/27 05:48:50;;;;;;;4.13;2.97;;;-1.10;99.90;;;;;;5051540;28;20206;-70
2022/11/27 05:51:17;;;;;;;3.38;3.05;;;-1.20;99.90;;;;;;5053297;28;20201;-70
2022/11/27 05:53:45;;;;;;;4.45;2.65;;;-1.20;99.90;;;;;;5054200;28;20202;-70
2022/11/27 05:56:14;;;;;;;3.22;2.92;;;-1.20;99.90;;;;;;5053856;28;20303;-69
2022/11/27 05:58:43;;;;;;;5.32;3.67;;;-1.20;99.90;;;;;;5054046;28;20197;-70
2022/11/27 06:01:11;;;;;;;4.38;3.95;;;-1.20;99.90;;;;;;5053074;28;20584;-70
2022/11/27 06:03:39;;;;;;;3.80;3.25;;;-1.20;99.90;;;;;;5054024;28;20216;-70
2022/11/27 06:06:07;;;;;;;7.15;4.05;;;-1.20;99.90;;;;;;5053599;28;20224;-70
2022/11/27 06:08:35;;;;;;;3.72;3.42;;;-1.20;99.90;;;;;;5053818;28;20206;-70
2022/11/27 06:11:06;;;;;;;3.30;2.80;;;-1.20;99.90;;;;;;5052876;28;20205;-70
2022/11/27 06:13:33;;;;;;;7.22;4.57;;;-1.20;99.90;;;;;;5053820;28;20602;-70
2022/11/27 06:16:05;;;;;;;3.38;3.08;;;-1.30;99.90;;;;;;5053801;28;20591;-70
2022/11/27 06:18:32;;;;;;;5.32;3.25;;;-1.30;99.90;;;;;;5053642;28;20339;-70
2022/11/27 06:21:00;;;;;;;6.68;3.42;;;-1.30;99.90;;;;;;5052998;28;20204;-70
2022/11/27 06:23:26;;;;;;;4.20;3.80;;;-1.40;99.90;;;;;;5053353;28;20582;-70
2022/11/27 06:25:53;;;;;;;4.43;3.85;;;-1.40;99.90;;;;;;5053503;28;20221;-70
2022/11/27 06:28:20;;;;;;;5.47;3.20;;;-1.40;99.90;;;;;;5053382;28;20210;-70
2022/11/27 06:30:47;;;;;;;4.50;3.72;;;-1.40;99.90;;;;;;5052898;28;20202;-70
2022/11/27 06:33:13;;;;;;;5.40;4.03;;;-1.40;99.90;;;;;;5053233;28;20201;-70
2022/11/27 06:35:40;;;;;;;5.88;3.30;;;-1.40;99.90;;;;;;5052958;28;20233;-69
2022/11/27 06:38:08;;;;;;;3.33;2.65;;;-1.40;99.90;;;;;;5053126;28;20212;-70
2022/11/27 06:40:35;;;;;;;4.70;3.80;;;-1.40;99.90;;;;;;5052579;28;20292;-70
2022/11/27 06:43:02;;;;;;;4.00;2.65;;;-1.50;99.90;;;;;;5052991;28;20592;-70
2022/11/27 06:45:28;;;;;;;6.20;3.65;;;-1.40;99.90;;;;;;5052717;28;20218;-70
2022/11/27 06:47:55;;;;;;;4.63;3.30;;;-1.40;99.90;;;;;;5053112;28;20213;-70
2022/11/27 06:50:22;;;;;;;5.88;4.00;;;-1.50;99.90;;;;;;5052399;28;20201;-70
2022/11/27 06:52:49;;;;;;;4.18;3.65;;;-1.50;99.90;;;;;;5047155;28;20199;-70
2022/11/27 06:55:17;;;;;;;6.28;3.95;;;-1.60;99.90;;;;;;5029512;28;20230;-70
2022/11/27 06:57:43;;;;;;;4.10;3.70;;;-1.60;99.90;;;;;;5021580;28;20211;-70
2022/11/27 07:00:11;;;;;;;6.00;3.60;;;-1.50;99.90;;;;;;5022213;28;20195;-70
2022/11/27 07:02:38;;;;;;;4.70;3.42;;;-1.40;99.90;;;;;;5022486;28;20286;-70
2022/11/27 07:05:05;;;;;;;3.80;3.40;;;-1.40;99.90;;;;;;5015718;28;20218;-70
2022/11/27 07:07:32;;;;;;;4.40;3.47;;;-1.30;99.90;;;;;;5012679;28;20199;-70
2022/11/27 07:09:58;;;;;;;2.95;2.38;;;-1.30;99.90;;;;;;5012914;28;20210;-70
2022/11/27 07:12:26;;;;;;;2.63;2.42;;;-0.90;99.90;;;;;;5012506;28;20203;-70
2022/11/27 07:14:53;;;;;;;3.33;2.85;;;-0.40;99.90;;;;;;5012576;28;20223;-71
2022/11/27 07:17:20;;;;;;;6.05;3.38;;;-0.30;99.90;;;;;;5012699;28;20380;-71
2022/11/27 07:19:47;;;;;;;4.65;3.38;;;-0.20;99.90;;;;;;5012613;28;20207;-71
2022/11/27 07:22:15;;;;;;;3.55;3.25;;;-0.20;99.90;;;;;;5012214;28;20203;-71
2022/11/27 07:24:41;;;;;;;4.18;2.90;;;-0.10;99.90;;;;;;5012657;28;20635;-71
2022/11/27 07:27:08;;;;;;;5.10;3.92;;;-0.10;99.90;;;;;;5012658;28;20766;-71
2022/11/27 07:29:36;;;;;;;8.93;4.97;;;-0.10;99.90;;;;;;5012568;28;20207;-71
2022/11/27 07:32:03;;;;;;;4.25;3.38;;;-0.10;99.90;;;;;;5012023;28;20204;-71
2022/11/27 07:34:30;;;;;;;3.90;3.60;;;0.00;99.90;;;;;;5012623;28;20223;-71
2022/11/27 07:36:56;;;;;;;4.25;3.85;;;0.10;99.90;;;;;;5012402;28;20230;-71
2022/11/27 07:39:23;;;;;;;3.63;3.30;;;0.20;99.90;;;;;;5012210;28;20217;-71
2022/11/27 07:41:50;;;;;;;4.78;4.07;;;0.30;99.90;;;;;;5011986;28;20534;-71
2022/11/27 07:44:18;;;;;;;5.55;4.38;;;0.40;99.90;;;;;;5012008;28;20235;-70
2022/11/27 07:46:46;;;;;;;5.53;3.60;;;0.40;99.90;;;;;;5012427;28;20621;-71
2022/11/27 07:49:12;;;;;;;5.80;3.40;;;0.50;99.90;;;;;;5011905;28;20684;-71
2022/11/27 07:51:39;;;;;;;4.32;3.92;;;0.70;99.90;;;;;;5011738;28;20206;-71
2022/11/27 07:54:06;;;;;;;4.35;3.63;;;0.80;99.90;;;;;;5011915;28;20203;-71
2022/11/27 07:56:32;;;;;;;4.05;3.65;;;1.00;99.90;;;;;;5012222;28;20223;-71
2022/11/27 07:58:59;;;;;;;5.60;4.20;;;1.30;99.90;;;;;;5011839;28;20666;-71
2022/11/27 08:01:26;;;;;;;6.90;3.80;;;1.50;99.90;;;;;;5011615;28;20210;-71
2022/11/27 08:03:54;;;;;;;4.15;3.72;;;1.70;99.90;;;;;;5011979;28;20199;-71
2022/11/27 08:06:23;;;;;;;4.95;4.28;;;2.00;99.90;;;;;;5011967;28;20195;-71
2022/11/27 08:08:51;;;;;;;6.90;3.88;;;2.60;99.90;;;;;;5012022;28;20218;-71
2022/11/27 08:11:20;;;;;;;7.22;3.38;;;3.10;99.90;;;;;;5018240;28;20235;-71
2022/11/27 08:13:48;;;;;;;6.10;4.80;;;3.50;99.90;;;;;;5030465;28;20225;-71
2022/11/27 08:16:16;;;;;;;4.97;3.90;;;4.50;99.90;;;;;;5029676;28;20230;-69
2022/11/27 08:18:43;;;;;;;5.13;3.50;;;5.60;99.90;;;;;;5029878;28;20720;-70
2022/11/27 08:21:12;;;;;;;3.90;3.50;;;6.40;99.90;;;;;;5029535;28;20755;-68
2022/11/27 08:23:39;;;;;;;4.30;3.90;;;6.70;99.90;;;;;;5030136;28;20195;-71
2022/11/27 08:26:08;;;;;;;4.22;3.80;;;7.00;99.90;;;;;;5029667;28;20221;-69
2022/11/27 08:28:36;;;;;;;6.05;4.97;;;7.60;99.90;;;;;;5030297;28;20206;-69
2022/11/27 08:31:05;;;;;;;4.63;4.22;;;8.40;99.90;;;;;;5029827;28;20213;-70
2022/11/27 08:33:33;;;;;;;5.32;4.13;;;9.40;99.90;;;;;;5029987;28;20232;-69
2022/11/27 08:36:01;;;;;;;5.72;4.30;;;10.30;99.90;;;;;;5030040;28;20236;-70
2022/11/27 08:38:29;;;;;;;4.03;3.63;;;11.00;99.90;;;;;;5030252;28;20311;-70
2022/11/27 08:40:57;;;;;;;4.78;3.90;;;11.50;99.90;;;;;;5029364;28;20204;-69
2022/11/27 08:43:25;;;;;;;4.00;3.70;;;12.00;99.90;;;;;;5030211;28;20263;-68
2022/11/27 08:45:53;;;;;;;3.90;3.58;;;12.40;99.90;;;;;;5029999;28;20229;-70
2022/11/27 08:48:21;;;;;;;4.60;4.20;;;12.40;99.90;;;;;;5029223;28;20203;-70
2022/11/27 08:50:49;;;;;;;4.50;3.85;;;11.90;99.90;;;;;;5029734;28;20253;-71
2022/11/27 08:53:17;;;;;;;6.28;4.72;;;11.30;99.90;;;;;;5029222;28;20217;-71
2022/11/27 08:55:46;;;;;;;4.90;3.88;;;10.60;99.90;;;;;;5028782;28;20963;-72
2022/11/27 08:58:13;;;;;;;4.20;3.80;;;10.20;99.90;;;;;;5028873;28;20207;-71
2022/11/27 09:00:40;;;;;;;9.10;6.90;;;10.20;99.90;;;;;;5029205;28;20595;-71
2022/11/27 09:03:07;;;;;;;14.52;9.77;;;10.30;99.90;;;;;;5028784;28;20228;-71
2022/11/27 09:05:34;;;;;;;7.65;6.85;;;10.30;99.90;;;;;;5027803;28;20236;-71
2022/11/27 09:08:04;;;;;;;3.55;3.10;;;10.00;99.90;;;;;;5028248;28;20677;-71
2022/11/27 09:10:31;;;;;;;3.30;2.55;;;9.30;99.90;;;;;;5028184;28;20239;-71
2022/11/27 09:12:59;;;;;;;2.83;2.30;;;9.30;99.90;;;;;;5028217;28;20677;-71
2022/11/27 09:15:26;;;;;;;2.80;2.50;;;9.80;99.90;;;;;;5029552;28;20260;-72
2022/11/27 09:17:53;;;;;;;2.20;1.83;;;10.60;99.90;;;;;;5028910;28;20666;-71
2022/11/27 09:20:19;;;;;;;3.97;2.58;;;11.90;99.90;;;;;;5029151;28;20210;-71
2022/11/27 09:22:46;;;;;;;2.10;1.90;;;12.50;99.90;;;;;;5029398;28;20205;-72
2022/11/27 09:25:13;;;;;;;1.98;1.75;;;11.90;99.90;;;;;;5020862;28;20218;-71
2022/11/27 09:27:40;;;;;;;2.20;1.92;;;10.60;99.90;;;;;;5016459;28;20202;-71
2022/11/27 09:30:09;;;;;;;3.67;2.30;;;9.40;99.90;;;;;;5028055;28;20210;-72
2022/11/27 09:32:36;;;;;;;1.90;1.70;;;8.70;99.90;;;;;;5021295;28;20209;-70
2022/11/27 09:35:03;;;;;;;2.78;2.05;;;8.20;99.90;;;;;;5028610;28;20219;-71
2022/11/27 09:37:30;;;;;;;2.88;2.38;;;7.70;99.90;;;;;;5029788;28;20224;-71
2022/11/27 09:39:58;;;;;;;3.28;2.40;;;7.20;99.90;;;;;;5029319;28;20598;-69
2022/11/27 09:42:39;;;;;;;2.78;2.53;;;6.90;99.90;;;;;;5029017;28;20246;-69
2022/11/27 09:45:16;;;;;;;2.00;1.80;;;6.80;99.90;;;;;;5029505;28;20339;-69
2022/11/27 09:47:49;;;;;;;2.45;1.98;;;7.30;99.90;;;;;;5030063;28;20254;-68
2022/11/27 09:50:21;;;;;;;2.65;2.25;;;7.90;99.90;;;;;;5030337;28;20678;-69
2022/11/27 09:52:52;;;;;;;5.68;2.50;;;8.30;99.90;;;;;;5030899;28;20206;-69
2022/11/27 09:55:24;;;;;;;3.55;2.50;;;8.40;99.90;;;;;;5028892;28;20232;-69
2022/11/27 09:57:58;;;;;;;3.00;2.65;;;8.10;99.90;;;;;;5029670;28;20200;-69
2022/11/27 10:00:27;;;;;;;2.72;2.42;;;8.20;99.90;;;;;;5028672;28;20574;-69
2022/11/27 10:02:54;;;;;;;3.65;3.00;;;8.70;99.90;;;;;;5029273;28;20210;-71
2022/11/27 10:05:23;;;;;;;2.85;2.40;;;8.80;99.90;;;;;;5028656;28;20320;-69
2022/11/27 10:08:12;;;;;;;3.67;2.72;;;9.10;99.90;;;;;;5029454;28;20201;-68
2022/11/27 10:10:45;;;;;;;3.97;2.95;;;10.20;99.90;;;;;;5027863;28;20209;-69
2022/11/27 10:13:26;;;;;;;3.22;2.92;;;12.70;99.90;;;;;;5029197;28;20214;-69
2022/11/27 10:15:58;;;;;;;3.10;2.55;;;15.00;99.90;;;;;;5029106;28;20232;-69
2022/11/27 10:18:35;;;;;;;2.60;2.40;;;16.30;99.90;;;;;;5029149;28;20203;-69
2022/11/27 10:21:09;;;;;;;2.10;2.00;;;16.70;98.80;;;;;;5028883;28;20297;-70
2022/11/27 10:23:46;;;;;;;3.07;2.70;;;18.10;98.30;;;;;;5028299;28;20471;-69
2022/11/27 10:26:18;;;;;;;3.00;2.23;;;18.40;96.40;;;;;;5028888;28;20480;-71
2022/11/27 10:28:53;;;;;;;2.27;2.07;;;18.60;96.20;;;;;;5044942;28;20467;-71
2022/11/27 10:31:32;;;;;;;2.60;2.40;;;18.80;96.50;;;;;;5048357;28;20930;-72
2022/11/27 10:34:02;;;;;;;2.57;2.37;;;18.70;94.20;;;;;;5049187;28;20456;-72
2022/11/27 10:36:34;;;;;;;2.50;2.07;;;19.90;93.60;;;;;;5035078;28;20484;-72
2022/11/27 10:39:02;;;;;;;1.80;1.70;;;21.20;92.60;;;;;;5032905;28;20465;-72
2022/11/27 10:41:34;;;;;;;2.70;2.17;;;20.90;91.30;;;;;;5033008;28;20456;-71
2022/11/27 10:44:15;;;;;;;3.53;2.10;;;21.20;91.40;;;;;;5033332;28;20461;-71
2022/11/27 10:46:43;;;;;;;2.20;1.90;;;21.50;91.40;;;;;;5032784;28;20464;-71
2022/11/27 10:49:10;;;;;;;3.20;2.30;;;20.50;90.60;;;;;;5033273;28;20467;-71
2022/11/27 10:51:39;;;;;;;3.00;2.43;;;21.20;90.30;;;;;;5033225;28;20468;-72
2022/11/27 10:54:11;;;;;;;2.03;1.93;;;22.50;90.00;;;;;;5032510;28;20457;-71
2022/11/27 10:57:08;;;;;;;2.43;1.80;;;23.60;86.70;;;;;;5032465;28;20484;-71
2022/11/27 10:59:39;;;;;;;3.03;2.07;;;21.40;84.80;;;;;;5032605;28;20814;-70
2022/11/27 11:02:26;;;;;;;4.20;2.60;;;18.90;89.60;;;;;;5032267;28;20457;-71
2022/11/27 11:04:52;;;;;;;2.27;1.97;;;18.00;91.40;;;;;;5032943;28;20496;-70
2022/11/27 11:07:24;;;;;;;4.83;2.40;;;18.50;90.00;;;;;;5032926;28;20456;-71
2022/11/27 11:09:52;;;;;;;4.47;2.67;;;20.20;89.60;;;;;;5032469;28;20468;-71
2022/11/27 11:12:21;;;;;;;2.83;2.37;;;21.60;85.40;;;;;;5032050;28;20456;-71
2022/11/27 11:14:52;;;;;;;2.20;2.00;;;21.90;83.50;;;;;;5032882;28;20822;-71
2022/11/27 11:17:25;;;;;;;2.60;2.40;;;21.50;84.70;;;;;;5032252;28;20511;-71
2022/11/27 11:19:53;;;;;;;2.50;2.20;;;21.40;84.80;;;;;;5032766;28;20461;-72
2022/11/27 11:22:20;;;;;;;2.50;2.30;;;21.80;86.10;;;;;;5031629;28;21029;-71
2022/11/27 11:24:50;;;;;;;3.30;2.43;;;21.50;85.60;;;;;;5031316;28;20481;-71
2022/11/27 11:27:20;;;;;;;2.67;2.20;;;21.20;86.50;;;;;;5031097;28;20464;-71
2022/11/27 11:29:49;;;;;;;2.57;2.37;;;21.10;86.20;;;;;;5030321;28;20527;-70
2022/11/27 11:32:23;;;;;;;2.90;2.60;;;20.20;88.30;;;;;;5030715;28;20461;-71
2022/11/27 11:34:55;;;;;;;3.63;2.80;;;18.90;90.30;;;;;;5031563;28;20872;-71
2022/11/27 11:37:25;;;;;;;3.37;2.77;;;17.40;91.20;;;;;;5031490;28;20493;-71
2022/11/27 11:39:58;;;;;;;3.63;2.53;;;16.30;92.70;;;;;;5031578;28;20464;-71
2022/11/27 11:42:26;;;;;;;3.20;2.73;;;15.20;94.10;;;;;;5031311;28;20457;-71
2022/11/27 11:44:56;;;;;;;3.43;2.77;;;14.30;94.10;;;;;;5031639;28;21046;-70
2022/11/27 11:47:25;;;;;;;4.23;3.27;;;13.70;95.40;;;;;;5030692;28;20461;-71
2022/11/27 11:49:54;;;;;;;3.20;2.80;;;13.60;96.60;;;;;;5031861;28;20952;-71
2022/11/27 11:52:41;;;;;;;4.33;3.60;;;13.60;97.20;;;;;;5030709;28;20463;-71
2022/11/27 11:55:18;;;;;;;3.50;3.20;;;13.90;96.80;;;;;;5031582;28;20511;-69
2022/11/27 11:57:57;;;;;;;3.50;3.20;;;14.00;96.80;;;;;;5031940;28;20546;-69
2022/11/27 12:00:31;;;;;;;3.60;3.30;;;14.30;97.20;;;;;;5029847;28;20480;-69
2022/11/27 12:03:15;;;;;;;6.30;4.27;;;14.50;96.70;;;;;;5031563;28;20461;-69
2022/11/27 12:05:58;;;;;;;4.83;3.97;;;14.50;97.30;;;;;;5031280;28;20483;-68
2022/11/27 12:08:37;;;;;;;5.20;4.20;;;14.60;96.80;;;;;;5030902;28;20503;-69
2022/11/27 12:11:10;;;;;;;6.90;4.50;;;14.60;96.80;;;;;;5102909;22;20576;-66
2022/11/27 12:13:49;;;;;;;5.40;4.90;;;14.50;97.00;;;;;;5022052;28;20465;-69
2022/11/27 12:16:25;;;;;;;7.57;5.05;;;14.10;97.10;;;;;;5032315;28;20596;-69
2022/11/27 12:19:07;;;;;;;5.25;4.63;;;13.50;97.40;;;;;;5033620;28;20198;-69
2022/11/27 12:21:44;;;;;;;5.18;4.65;;;13.30;98.30;;;;;;5033138;28;20202;-69
2022/11/27 12:24:28;;;;;;;5.28;4.35;;;13.20;98.40;;;;;;5033216;28;20206;-69
2022/11/27 12:27:08;;;;;;;4.82;4.03;;;12.80;98.30;;;;;;5033639;28;20195;-68
2022/11/27 12:29:59;;;;;;;5.57;4.85;;;12.60;98.80;;;;;;5034215;28;20209;-68
2022/11/27 12:32:49;;;;;;;4.40;4.00;;;12.20;99.20;;;;;;5032672;28;20237;-69
2022/11/27 12:35:38;;;;;;;4.63;4.22;;;12.40;99.70;;;;;;5033064;28;20226;-69
2022/11/27 12:38:32;;;;;;;3.88;3.47;;;12.80;99.50;;;;;;5033544;28;20375;-68
2022/11/27 12:41:22;;;;;;;5.38;3.72;;;13.10;99.00;;;;;;5035222;28;20210;-69
2022/11/27 12:43:51;;;;;;;5.07;3.85;;;13.40;99.00;;;;;;5034225;28;20696;-69
2022/11/27 12:46:22;;;;;;;4.75;4.13;;;13.60;98.70;;;;;;5032988;28;20324;-69
2022/11/27 12:48:56;;;;;;;5.13;4.00;;;13.80;97.80;;;;;;5033826;28;20727;-71
2022/11/27 12:51:27;;;;;;;4.95;3.75;;;13.60;97.90;;;;;;5033607;28;20205;-70
2022/11/27 12:53:59;;;;;;;5.90;4.30;;;12.90;98.50;;;;;;5034528;28;20225;-70
2022/11/27 12:56:31;;;;;;;5.45;3.60;;;12.30;99.30;;;;;;5033974;28;20218;-70
2022/11/27 12:59:10;;;;;;;4.60;4.20;;;12.00;99.70;;;;;;5033613;28;20202;-68
2022/11/27 13:01:44;;;;;;;5.90;4.03;;;12.00;99.90;;;;;;5033200;28;20221;-69